Time;durP1;ratioP1;P1;durP2;ratioP2;P2;SDS_P1;SDS_P2;PMS_P1;PMS_P2;Temp;Humidity;BMP_temperature;BMP_pressure;BME280_temperature;BME280_humidity;BME280_pressure;Samples;Min_cycle;Max_cycle;Signal;HPM_P1;HPM_P2
2024/03/14 00:01:53;;;;;;;25.60;14.48;;;;;;;10.50;100.00;100816.97;6227491;22;20046;-82
2024/03/14 00:04:27;;;;;;;25.13;14.80;;;;;;;10.51;100.00;100832.66;6231143;22;20091;-82
2024/03/14 00:06:54;;;;;;;23.05;15.20;;;;;;;10.51;100.00;100823.94;6228003;22;20020;-83
2024/03/14 00:09:23;;;;;;;26.27;16.15;;;;;;;10.47;100.00;100822.22;6229679;22;20038;-83
2024/03/14 00:11:51;;;;;;;26.15;15.32;;;;;;;10.49;100.00;100825.69;6255902;22;20444;-82
2024/03/14 00:14:18;;;;;;;28.52;16.65;;;;;;;10.49;100.00;100825.69;6228088;22;20015;-82
2024/03/14 00:16:45;;;;;;;28.17;17.70;;;;;;;10.46;100.00;100831.81;6230780;22;20030;-83
2024/03/14 00:19:12;;;;;;;25.42;16.33;;;;;;;10.47;100.00;100830.94;6228179;22;20050;-82
2024/03/14 00:21:41;;;;;;;27.52;17.05;;;;;;;10.42;100.00;100817.88;6253090;22;20020;-82
2024/03/14 00:24:08;;;;;;;23.92;15.55;;;;;;;10.43;100.00;100822.22;6228133;22;20019;-83
2024/03/14 00:26:36;;;;;;;25.30;16.15;;;;;;;10.43;100.00;100824.00;6228376;22;20026;-82
2024/03/14 00:29:10;;;;;;;25.80;15.90;;;;;;;10.42;100.00;100820.50;6231596;22;20465;-81
2024/03/14 00:31:42;;;;;;;31.48;17.48;;;;;;;10.41;100.00;100829.22;6255875;22;20125;-83
2024/03/14 00:34:09;;;;;;;31.20;17.40;;;;;;;10.39;100.00;100814.41;6225791;22;20134;-83
2024/03/14 00:36:37;;;;;;;29.98;17.33;;;;;;;10.37;100.00;100816.16;6227629;22;20026;-82
2024/03/14 00:44:17;;;;;;;29.77;18.67;;;;;;;10.30;100.00;100812.69;6276874;22;20028;-81
2024/03/14 00:46:46;;;;;;;28.55;17.80;;;;;;;10.32;100.00;100812.69;6277300;22;20023;-83
2024/03/14 00:49:15;;;;;;;29.60;19.88;;;;;;;10.29;100.00;100808.31;6252906;22;20024;-82
2024/03/14 00:51:44;;;;;;;31.52;18.35;;;;;;;10.30;100.00;100806.56;6226695;22;20023;-83
2024/03/14 00:54:14;;;;;;;30.85;19.25;;;;;;;10.29;100.00;100807.47;6237485;23;20107;-84
2024/03/14 00:56:46;;;;;;;34.15;20.08;;;;;;;10.27;100.00;100803.09;6195945;23;20027;-83
2024/03/14 00:59:16;;;;;;;29.98;18.27;;;;;;;10.29;100.00;100804.84;6197220;23;20020;-83
2024/03/14 01:01:46;;;;;;;32.00;18.13;;;;;;;10.30;100.00;100803.94;6197814;23;20020;-83
2024/03/14 01:04:13;;;;;;;27.98;17.15;;;;;;;10.30;100.00;100797.00;6224523;23;20077;-82
2024/03/14 01:06:41;;;;;;;28.90;17.00;;;;;;;10.30;100.00;100794.38;6196259;23;20058;-83
2024/03/14 01:09:11;;;;;;;28.15;18.10;;;;;;;10.29;100.00;100783.94;6223585;23;20016;-83
2024/03/14 01:11:39;;;;;;;29.08;16.50;;;;;;;10.30;100.00;100789.13;6195468;23;20026;-82
2024/03/14 01:14:06;;;;;;;32.47;18.08;;;;;;;10.32;100.00;100789.13;6196417;23;20465;-83
2024/03/14 01:16:36;;;;;;;31.65;17.25;;;;;;;10.32;100.00;100789.13;6196292;23;20024;-82
2024/03/14 01:19:03;;;;;;;31.38;18.92;;;;;;;10.32;100.00;100783.88;6224077;23;20413;-82
2024/03/14 01:21:30;;;;;;;28.38;17.58;;;;;;;10.32;100.00;100783.88;6201846;23;20028;-82
2024/03/14 01:24:03;;;;;;;31.88;18.65;;;;;;;10.32;100.00;100786.50;6221564;23;20054;-83
2024/03/14 01:26:32;;;;;;;28.25;15.32;;;;;;;10.32;100.00;100779.53;6198545;23;20023;-83
2024/03/14 01:29:01;;;;;;;26.52;15.23;;;;;;;10.33;100.00;100781.25;6195778;23;20027;-82
2024/03/14 01:31:29;;;;;;;23.27;15.52;;;;;;;10.34;100.00;100784.72;6222613;23;20016;-82
2024/03/14 01:33:55;;;;;;;23.75;14.80;;;;;;;10.34;100.00;100779.50;6195762;23;20058;-83
2024/03/14 01:36:24;;;;;;;25.98;15.63;;;;;;;10.34;100.00;100780.38;6196016;23;20024;-82
2024/03/14 01:38:52;;;;;;;25.77;15.77;;;;;;;10.35;100.00;100782.16;6196247;23;20304;-84
2024/03/14 01:41:21;;;;;;;24.25;16.23;;;;;;;10.37;100.00;100776.91;6197119;23;20079;-82
2024/03/14 01:44:00;;;;;;;24.02;15.32;;;;;;;10.37;100.00;100774.31;6201077;23;20031;-83
2024/03/14 01:46:32;;;;;;;28.02;15.15;;;;;;;10.38;100.00;100763.81;6221254;23;20150;-82
2024/03/14 01:49:01;;;;;;;23.58;14.90;;;;;;;10.39;100.00;100767.28;6195741;23;20023;-82
2024/03/14 01:51:29;;;;;;;27.02;15.90;;;;;;;10.40;100.00;100759.47;6195439;23;20047;-82
2024/03/14 01:53:56;;;;;;;23.05;15.40;;;;;;;10.40;100.00;100755.94;6194958;23;20093;-83
2024/03/14 01:56:23;;;;;;;23.60;13.85;;;;;;;10.42;100.00;100759.44;6196613;23;20464;-82
2024/03/14 01:58:52;;;;;;;25.40;15.38;;;;;;;10.38;100.00;100750.72;6220180;23;20020;-82
2024/03/14 02:01:23;;;;;;;23.70;14.30;;;;;;;10.41;100.00;100757.69;6195731;23;20019;-82
2024/03/14 02:04:17;;;;;;;21.42;13.60;;;;;;;10.42;100.00;100754.22;6197679;23;20020;-83
2024/03/14 02:07:09;;;;;;;22.33;13.32;;;;;;;10.42;100.00;100757.69;6174153;23;20046;-82
2024/03/14 02:09:39;;;;;;;24.40;14.70;;;;;;;10.43;100.00;100745.47;6197043;23;20079;-82
2024/03/14 02:12:07;;;;;;;22.63;13.73;;;;;;;10.41;100.00;100740.22;6219553;23;20043;-84
2024/03/14 02:14:36;;;;;;;21.13;12.85;;;;;;;10.41;100.00;100739.38;6196591;23;20062;-82
2024/03/14 02:17:09;;;;;;;19.30;12.88;;;;;;;10.40;100.00;100745.47;6195634;23;20024;-82
2024/03/14 02:19:39;;;;;;;22.20;14.10;;;;;;;10.40;100.00;100738.53;6222142;23;20027;-82
2024/03/14 02:22:06;;;;;;;20.42;14.43;;;;;;;10.41;100.00;100742.00;6222027;23;20020;-82
2024/03/14 02:24:32;;;;;;;17.42;12.38;;;;;;;10.39;100.00;100741.13;6197057;23;20322;-82
2024/03/14 02:27:04;;;;;;;24.75;14.50;;;;;;;10.38;100.00;100728.94;6197673;23;20020;-82
2024/03/14 02:29:31;;;;;;;23.60;14.07;;;;;;;10.37;100.00;100735.06;6198668;23;20088;-82
2024/03/14 02:31:58;;;;;;;24.13;13.55;;;;;;;10.37;100.00;100732.44;6198031;23;20020;-83
2024/03/14 02:34:25;;;;;;;24.05;13.57;;;;;;;10.37;100.00;100741.13;6223597;23;20024;-83
2024/03/14 02:36:51;;;;;;;21.73;12.18;;;;;;;10.35;100.00;100731.53;6223219;23;20319;-82
2024/03/14 02:39:22;;;;;;;19.65;12.13;;;;;;;10.38;100.00;100736.78;6200121;23;20027;-82
2024/03/14 02:41:50;;;;;;;23.13;14.05;;;;;;;10.35;100.00;100739.38;6197672;23;20627;-81
2024/03/14 02:44:18;;;;;;;23.38;13.07;;;;;;;10.33;100.00;100728.94;6173455;23;20024;-82
2024/03/14 02:46:46;;;;;;;16.73;11.90;;;;;;;10.36;100.00;100728.06;6199874;23;20019;-82
2024/03/14 02:49:15;;;;;;;17.67;11.60;;;;;;;10.35;100.00;100726.28;6198960;23;20043;-82
2024/03/14 02:51:43;;;;;;;20.00;12.50;;;;;;;10.35;100.00;100732.44;6197827;23;20016;-84
2024/03/14 02:54:15;;;;;;;19.52;12.90;;;;;;;10.35;100.00;100729.84;6197057;23;20078;-82
2024/03/14 02:56:51;;;;;;;18.77;12.07;;;;;;;10.34;100.00;100727.16;6197626;23;20046;-83
2024/03/14 02:59:19;;;;;;;21.08;12.77;;;;;;;10.33;100.00;100723.69;6198662;23;20020;-82
2024/03/14 03:01:47;;;;;;;20.77;12.48;;;;;;;10.33;100.00;100718.47;6222528;23;20024;-83
2024/03/14 03:04:14;;;;;;;18.67;12.25;;;;;;;10.33;100.00;100715.84;6198036;23;20019;-81
2024/03/14 03:06:48;;;;;;;19.77;13.00;;;;;;;10.33;100.00;100715.00;6197749;23;20020;-81
2024/03/14 03:09:16;;;;;;;20.60;12.75;;;;;;;10.31;100.00;100704.53;6198372;23;20023;-83
2024/03/14 03:11:43;;;;;;;20.77;13.80;;;;;;;10.29;100.00;100702.81;6221367;23;20023;-84
2024/03/14 03:14:12;;;;;;;19.15;11.63;;;;;;;10.31;100.00;100708.88;6224167;23;20016;-81
2024/03/14 03:16:39;;;;;;;19.13;11.25;;;;;;;10.31;100.00;100707.16;6199547;23;20115;-82
2024/03/14 03:19:14;;;;;;;19.15;11.68;;;;;;;10.30;100.00;100707.13;6198019;23;20031;-83
2024/03/14 03:21:42;;;;;;;17.58;12.27;;;;;;;10.29;100.00;100708.91;6222682;23;20054;-83
2024/03/14 03:24:08;;;;;;;19.63;12.75;;;;;;;10.29;100.00;100705.44;6224267;23;20024;-82
2024/03/14 03:26:36;;;;;;;18.02;11.18;;;;;;;10.28;100.00;100696.69;6198316;23;20444;-81
2024/03/14 03:29:05;;;;;;;16.55;11.30;;;;;;;10.27;100.00;100689.72;6197867;23;20027;-81
2024/03/14 03:31:34;;;;;;;16.17;11.30;;;;;;;10.27;100.00;100684.47;6197929;23;20062;-82
2024/03/14 03:34:01;;;;;;;20.65;12.02;;;;;;;10.24;100.00;100687.13;6198422;23;20454;-81
2024/03/14 03:36:29;;;;;;;19.88;12.30;;;;;;;10.23;100.00;100688.00;6198764;23;20028;-82
2024/03/14 03:38:57;;;;;;;16.92;11.68;;;;;;;10.19;100.00;100692.38;6199098;23;20054;-82
2024/03/14 03:41:23;;;;;;;15.23;10.43;;;;;;;10.20;100.00;100691.50;6198536;23;20016;-82
2024/03/14 03:43:59;;;;;;;18.02;12.50;;;;;;;10.19;100.00;100686.28;6221181;23;20020;-82
2024/03/14 03:46:25;;;;;;;16.85;11.57;;;;;;;10.18;100.00;100681.94;6197187;23;20028;-82
2024/03/14 03:48:52;;;;;;;14.18;10.70;;;;;;;10.19;100.00;100684.53;6199642;23;20409;-82
2024/03/14 03:51:18;;;;;;;17.27;11.18;;;;;;;10.21;100.00;100692.41;6197005;23;20026;-82
2024/03/14 03:53:46;;;;;;;17.95;11.23;;;;;;;10.21;100.00;100684.56;6222698;23;20079;-82
2024/03/14 03:56:11;;;;;;;16.45;9.65;;;;;;;10.18;100.00;100677.59;6223770;23;20051;-82
2024/03/14 03:58:38;;;;;;;20.15;11.55;;;;;;;10.17;100.00;100680.19;6223434;23;20402;-82
2024/03/14 04:01:06;;;;;;;16.45;11.05;;;;;;;10.12;100.00;100680.25;6197288;23;20020;-82
2024/03/14 04:03:36;;;;;;;24.10;11.07;;;;;;;10.10;100.00;100679.38;6198472;23;20020;-81
2024/03/14 04:06:02;;;;;;;16.63;12.30;;;;;;;10.09;100.00;100681.13;6197894;23;20041;-83
2024/03/14 04:08:38;;;;;;;18.23;10.90;;;;;;;10.06;100.00;100682.88;6222199;23;20027;-82
2024/03/14 04:11:07;;;;;;;15.68;10.00;;;;;;;10.06;100.00;100682.88;6219322;23;20020;-81
2024/03/14 04:13:34;;;;;;;17.90;9.98;;;;;;;9.99;100.00;100681.22;6224176;23;20020;-82
2024/03/14 04:16:04;;;;;;;13.05;10.38;;;;;;;9.92;100.00;100683.84;6222184;23;20012;-83
2024/03/14 04:18:35;;;;;;;15.38;10.82;;;;;;;9.87;100.00;100684.75;6198700;23;20044;-82
2024/03/14 04:21:02;;;;;;;15.95;9.88;;;;;;;9.83;100.00;100685.63;6196084;23;20024;-81
2024/03/14 04:23:29;;;;;;;18.02;10.70;;;;;;;9.82;100.00;100691.75;6197026;23;20116;-82
2024/03/14 04:25:57;;;;;;;18.20;10.75;;;;;;;9.82;100.00;100684.78;6222146;23;20035;-82
2024/03/14 04:28:25;;;;;;;15.07;9.90;;;;;;;9.83;100.00;100677.78;6198187;23;20074;-82
2024/03/14 04:30:53;;;;;;;20.80;10.35;;;;;;;9.82;100.00;100678.69;6197587;23;20086;-82
2024/03/14 04:33:20;;;;;;;19.15;10.95;;;;;;;9.81;100.00;100674.34;6196944;23;20019;-80
2024/03/14 04:35:50;;;;;;;18.08;10.75;;;;;;;9.80;100.00;100670.81;6222718;23;20024;-82
2024/03/14 04:38:18;;;;;;;18.23;11.75;;;;;;;9.81;100.00;100676.94;6198376;23;20031;-82
2024/03/14 04:40:45;;;;;;;18.50;11.48;;;;;;;9.80;100.00;100676.06;6197190;23;20138;-83
2024/03/14 04:43:18;;;;;;;15.57;11.68;;;;;;;9.81;100.00;100671.72;6224715;23;20107;-83
2024/03/14 04:45:46;;;;;;;17.38;11.07;;;;;;;9.81;100.00;100662.13;6221226;23;20023;-82
2024/03/14 04:48:13;;;;;;;16.60;11.05;;;;;;;9.83;100.00;100672.56;6223284;23;20020;-82
2024/03/14 04:50:43;;;;;;;19.65;11.57;;;;;;;9.81;100.00;100672.56;6197749;23;20028;-82
2024/03/14 04:53:11;;;;;;;15.98;10.73;;;;;;;9.81;100.00;100671.72;6197192;22;20034;-81
2024/03/14 04:55:40;;;;;;;19.65;11.00;;;;;;;9.79;100.00;100676.97;6223521;23;20117;-84
2024/03/14 04:58:07;;;;;;;18.55;11.77;;;;;;;9.79;100.00;100681.31;6198240;23;20034;-83
2024/03/14 05:00:57;;;;;;;16.30;10.55;;;;;;;9.75;100.00;100667.38;6199084;23;20020;-82
2024/03/14 05:03:24;;;;;;;15.57;10.18;;;;;;;9.67;100.00;100670.03;6196937;23;20070;-83
2024/03/14 05:05:56;;;;;;;17.65;10.57;;;;;;;9.67;100.00;100667.41;6197301;23;20354;-83
2024/03/14 05:08:24;;;;;;;20.20;11.38;;;;;;;9.67;100.00;100670.03;6224220;23;20361;-82
2024/03/14 05:10:53;;;;;;;15.73;10.60;;;;;;;9.69;100.00;100667.44;6250897;23;20091;-83
2024/03/14 05:13:21;;;;;;;16.83;10.13;;;;;;;9.67;100.00;100672.63;6201279;23;20238;-83
2024/03/14 05:15:50;;;;;;;18.60;11.63;;;;;;;9.67;100.00;100680.47;6225909;23;20096;-82
2024/03/14 05:18:17;;;;;;;15.13;10.18;;;;;;;9.70;100.00;100676.97;6202503;23;20087;-82
2024/03/14 05:20:44;;;;;;;16.63;10.23;;;;;;;9.71;100.00;100681.34;6200302;23;20026;-83
2024/03/14 05:23:15;;;;;;;21.35;12.25;;;;;;;9.71;100.00;100682.22;6222104;23;20016;-82
2024/03/14 05:25:42;;;;;;;17.98;10.60;;;;;;;9.68;100.00;100681.38;6198090;23;20020;-82
2024/03/14 05:28:10;;;;;;;16.42;10.57;;;;;;;9.68;100.00;100674.38;6196987;23;20587;-83
2024/03/14 05:30:37;;;;;;;14.43;11.35;;;;;;;9.68;100.00;100678.75;6223903;23;20073;-83
2024/03/14 05:33:05;;;;;;;15.43;10.63;;;;;;;9.68;100.00;100679.59;6224563;23;20027;-84
2024/03/14 05:35:37;;;;;;;18.60;10.15;;;;;;;9.69;100.00;100677.88;6202133;23;20048;-84
2024/03/14 05:38:05;;;;;;;21.33;11.45;;;;;;;9.68;100.00;100676.13;6196316;23;20028;-84
2024/03/14 05:40:32;;;;;;;15.02;10.65;;;;;;;9.71;100.00;100677.00;6196892;23;20175;-82
2024/03/14 05:43:01;;;;;;;17.85;11.88;;;;;;;9.77;100.00;100670.84;6197264;23;20020;-84
2024/03/14 05:45:33;;;;;;;16.33;10.80;;;;;;;9.82;100.00;100670.84;6197339;23;20023;-83
2024/03/14 05:48:11;;;;;;;16.73;11.65;;;;;;;9.86;100.00;100668.19;6198783;23;20020;-82
2024/03/14 05:50:38;;;;;;;15.13;9.93;;;;;;;9.85;100.00;100661.22;6201294;23;20024;-84
2024/03/14 05:53:07;;;;;;;16.88;11.10;;;;;;;9.96;100.00;100665.50;6198142;22;20074;-82
2024/03/14 05:55:38;;;;;;;17.85;11.55;;;;;;;10.01;100.00;100669.84;6199477;23;20062;-83
2024/03/14 05:58:05;;;;;;;16.88;10.15;;;;;;;10.04;100.00;100669.81;6224671;23;20024;-82
2024/03/14 06:00:32;;;;;;;16.65;11.10;;;;;;;10.08;100.00;100665.44;6222590;23;20062;-82
2024/03/14 06:02:59;;;;;;;18.80;11.30;;;;;;;10.16;100.00;100660.16;6223094;23;20039;-83
2024/03/14 06:05:27;;;;;;;15.20;10.13;;;;;;;10.15;100.00;100669.75;6173478;23;20028;-82
2024/03/14 06:07:56;;;;;;;16.83;12.38;;;;;;;10.20;100.00;100662.72;6223179;23;20032;-82
2024/03/14 06:10:23;;;;;;;18.13;11.65;;;;;;;10.23;100.00;100667.06;6223940;23;20450;-82
2024/03/14 06:12:51;;;;;;;15.75;10.73;;;;;;;10.24;100.00;100660.97;6225446;23;20019;-81
2024/03/14 06:15:18;;;;;;;18.05;11.07;;;;;;;10.29;100.00;100674.03;6225453;23;20024;-81
2024/03/14 06:17:50;;;;;;;15.07;11.23;;;;;;;10.29;100.00;100667.03;6223537;23;20020;-81
2024/03/14 06:20:18;;;;;;;18.25;11.55;;;;;;;10.34;100.00;100672.22;6200874;23;20106;-82
2024/03/14 06:22:49;;;;;;;17.30;10.20;;;;;;;10.35;100.00;100672.25;6224700;23;20115;-81
2024/03/14 06:25:17;;;;;;;16.00;9.95;;;;;;;10.38;100.00;100671.38;6201720;23;20069;-84
2024/03/14 06:27:44;;;;;;;18.17;11.43;;;;;;;10.39;100.00;100670.47;6201003;23;20023;-83
2024/03/14 06:30:12;;;;;;;20.30;11.27;;;;;;;10.42;100.00;100668.69;6201917;23;20016;-83
2024/03/14 06:32:45;;;;;;;17.63;11.80;;;;;;;10.49;100.00;100668.66;6202329;23;20016;-80
2024/03/14 06:35:13;;;;;;;22.17;12.93;;;;;;;10.51;100.00;100673.00;6225199;23;20260;-83
2024/03/14 06:37:41;;;;;;;18.70;11.95;;;;;;;10.55;100.00;100669.47;6204581;23;20016;-83
2024/03/14 06:40:13;;;;;;;15.00;10.73;;;;;;;10.63;100.00;100673.78;6225987;23;20735;-84
2024/03/14 06:42:45;;;;;;;20.50;11.32;;;;;;;10.70;100.00;100672.84;6202479;22;20462;-83
2024/03/14 06:45:18;;;;;;;18.33;11.82;;;;;;;10.71;100.00;100675.44;6203909;23;20027;-84
2024/03/14 06:47:45;;;;;;;18.45;11.80;;;;;;;10.73;100.00;100672.81;6226097;23;20020;-83
2024/03/14 06:50:14;;;;;;;20.15;12.02;;;;;;;10.76;100.00;100678.03;6202724;23;20322;-83
2024/03/14 06:52:42;;;;;;;18.38;12.68;;;;;;;10.76;100.00;100680.63;6225915;23;20020;-82
2024/03/14 06:55:10;;;;;;;17.77;11.13;;;;;;;10.79;100.00;100684.97;6199918;23;20020;-83
2024/03/14 06:57:39;;;;;;;17.67;11.80;;;;;;;10.81;100.00;100688.44;6201213;23;20020;-83
2024/03/14 07:00:12;;;;;;;19.25;12.52;;;;;;;10.76;100.00;100686.72;6226460;23;20058;-83
2024/03/14 07:02:41;;;;;;;15.05;10.48;;;;;;;10.76;100.00;100681.50;6197530;23;20020;-81
2024/03/14 07:05:17;;;;;;;18.55;11.50;;;;;;;10.78;100.00;100691.97;6198345;23;20089;-83
2024/03/14 07:07:47;;;;;;;18.65;12.65;;;;;;;10.77;100.00;100687.63;6176811;23;20022;-81
2024/03/14 07:10:19;;;;;;;18.45;12.77;;;;;;;10.74;100.00;100691.13;6176703;23;20123;-82
2024/03/14 07:12:49;;;;;;;17.35;12.40;;;;;;;10.74;100.00;100690.25;6202780;23;20374;-81
2024/03/14 07:15:22;;;;;;;17.63;13.00;;;;;;;10.80;100.00;100692.81;6175723;23;20020;-82
2024/03/14 07:17:48;;;;;;;18.90;12.02;;;;;;;10.85;100.00;100695.41;6174967;23;20024;-83
2024/03/14 07:20:24;;;;;;;17.45;12.45;;;;;;;10.93;100.00;100693.56;6199187;23;20024;-83
2024/03/14 07:22:50;;;;;;;17.48;11.75;;;;;;;11.00;100.00;100694.38;6201023;23;20027;-83
2024/03/14 07:25:19;;;;;;;17.08;11.45;;;;;;;11.08;100.00;100697.78;6226460;23;20024;-81
2024/03/14 07:27:49;;;;;;;15.52;11.57;;;;;;;11.12;100.00;100696.00;6204596;23;20022;-84
2024/03/14 07:30:16;;;;;;;19.50;12.77;;;;;;;11.16;100.00;100695.97;6201078;23;20036;-83
2024/03/14 07:32:43;;;;;;;12.77;9.60;;;;;;;11.29;100.00;100695.81;6226544;23;20178;-84
2024/03/14 07:35:19;;;;;;;16.52;12.02;;;;;;;11.29;100.00;100704.56;6199964;23;20024;-84
2024/03/14 07:37:47;;;;;;;15.48;11.70;;;;;;;11.36;100.00;100700.13;6202719;23;20050;-84
2024/03/14 07:40:16;;;;;;;16.90;11.90;;;;;;;11.38;100.00;100701.84;6177091;23;20036;-84
2024/03/14 07:42:47;;;;;;;16.67;11.10;;;;;;;11.52;100.00;100701.66;6201902;23;20024;-86
2024/03/14 07:45:22;;;;;;;16.58;11.00;;;;;;;11.53;100.00;100708.63;6176649;23;20342;-85
2024/03/14 07:47:52;;;;;;;14.40;10.52;;;;;;;11.64;100.00;100705.91;6201416;23;20609;-83
2024/03/14 07:50:19;;;;;;;17.25;10.90;;;;;;;11.72;100.00;100698.78;6223850;23;20099;-85
2024/03/14 07:52:48;;;;;;;15.65;11.05;;;;;;;11.92;100.00;100700.28;6224078;23;20019;-84
2024/03/14 07:55:18;;;;;;;18.35;10.73;;;;;;;12.01;100.00;100707.19;6201170;23;20038;-84
2024/03/14 07:57:47;;;;;;;14.52;10.02;;;;;;;12.12;100.00;100701.78;6226202;23;20224;-83
2024/03/14 08:00:20;;;;;;;14.32;9.63;;;;;;;12.27;100.00;100695.44;6200773;23;20028;-83
2024/03/14 08:02:55;;;;;;;16.95;11.65;;;;;;;12.32;100.00;100688.34;6225639;23;20020;-84
2024/03/14 08:05:31;;;;;;;16.48;10.50;;;;;;;12.43;100.00;100689.06;6202806;23;20043;-84
2024/03/14 08:08:01;;;;;;;13.88;10.63;;;;;;;12.58;100.00;100696.69;6228669;23;20071;-85
2024/03/14 08:10:28;;;;;;;14.90;10.35;;;;;;;12.69;100.00;100688.63;6202115;23;20024;-84
2024/03/14 08:12:59;;;;;;;17.17;11.40;;;;;;;12.76;100.00;100686.75;6227058;23;20112;-85
2024/03/14 08:15:35;;;;;;;14.80;10.45;;;;;;;13.12;100.00;100696.63;6204869;23;20035;-84
2024/03/14 08:18:11;;;;;;;13.88;11.27;;;;;;;13.37;100.00;100699.69;6204618;23;20035;-84
2024/03/14 08:20:40;;;;;;;15.88;10.85;;;;;;;13.46;100.00;100703.91;6205241;23;20617;-85
2024/03/14 08:23:08;;;;;;;18.55;11.23;;;;;;;13.45;100.00;100708.28;6204540;23;20066;-85
2024/03/14 08:25:37;;;;;;;14.95;11.10;;;;;;;13.21;100.00;100712.22;6204817;23;20028;-85
2024/03/14 08:28:06;;;;;;;17.48;9.90;;;;;;;13.04;100.00;100705.53;6201962;23;20397;-85
2024/03/14 08:30:36;;;;;;;13.98;10.35;;;;;;;12.83;100.00;100706.78;6202612;23;20032;-85
2024/03/14 08:33:04;;;;;;;15.27;9.77;;;;;;;12.70;100.00;100708.75;6225041;23;20093;-85
2024/03/14 08:38:20;;;;;;;14.23;10.15;;;;;;;12.52;100.00;100709.06;6238570;22;20650;-84
2024/03/14 08:40:48;;;;;;;13.27;9.82;;;;;;;12.56;100.00;100711.59;6282121;22;20028;-84
2024/03/14 08:43:18;;;;;;;12.48;9.88;;;;;;;12.62;100.00;100715.00;6233751;22;20220;-84
2024/03/14 08:45:48;;;;;;;12.05;9.13;;;;;;;12.57;100.00;100721.22;6260039;22;20023;-84
2024/03/14 08:48:15;;;;;;;12.63;9.18;;;;;;;12.66;100.00;100716.69;6287745;22;20019;-84
2024/03/14 08:50:44;;;;;;;13.95;9.77;;;;;;;12.76;100.00;100709.53;6236651;22;20067;-84
2024/03/14 08:53:17;;;;;;;15.60;10.85;;;;;;;12.79;100.00;100718.22;6239946;22;20050;-83
2024/03/14 08:55:54;;;;;;;17.63;9.13;;;;;;;12.81;100.00;100715.56;6207528;23;20031;-84
2024/03/14 08:58:25;;;;;;;13.98;8.63;;;;;;;12.99;100.00;100717.03;6230778;23;20020;-85
2024/03/14 09:00:56;;;;;;;16.13;12.07;;;;;;;13.17;100.00;100708.78;6205201;23;20022;-84
2024/03/14 09:03:33;;;;;;;12.95;9.82;;;;;;;13.32;100.00;100710.25;6227733;23;20019;-85
2024/03/14 09:06:00;;;;;;;12.88;10.25;;;;;;;13.50;100.00;100716.09;6203780;23;20020;-84
2024/03/14 09:08:30;;;;;;;14.32;10.38;;;;;;;13.52;100.00;100709.91;6203418;23;20024;-84
2024/03/14 09:10:58;;;;;;;13.32;9.55;;;;;;;13.58;100.00;100711.53;6203094;23;20080;-85
2024/03/14 09:13:30;;;;;;;14.70;10.65;;;;;;;13.60;100.00;100708.84;6202935;23;20051;-83
2024/03/14 09:15:59;;;;;;;16.38;10.10;;;;;;;13.53;100.00;100708.13;6203565;23;20050;-83
2024/03/14 09:18:26;;;;;;;13.65;8.57;;;;;;;13.55;100.00;100706.34;6228122;23;20020;-83
2024/03/14 09:20:56;;;;;;;18.73;10.02;;;;;;;13.73;100.00;100703.31;6201365;23;20023;-84
2024/03/14 09:23:25;;;;;;;11.80;9.35;;;;;;;13.86;100.00;100700.44;6226731;23;20122;-83
2024/03/14 09:25:57;;;;;;;13.98;8.93;;;;;;;13.99;99.89;100701.88;6201891;23;20020;-84
2024/03/14 09:28:26;;;;;;;12.18;9.27;;;;;;;14.25;98.47;100700.44;6203466;23;20420;-84
2024/03/14 09:30:59;;;;;;;15.23;9.30;;;;;;;14.41;96.33;100703.56;6227789;23;20042;-84
2024/03/14 09:33:30;;;;;;;13.18;8.90;;;;;;;14.66;93.90;100700.34;6229377;23;20043;-84
2024/03/14 09:35:57;;;;;;;13.35;7.97;;;;;;;14.82;91.45;100698.19;6229350;23;20020;-85
2024/03/14 09:38:24;;;;;;;11.25;8.93;;;;;;;15.06;89.47;100694.06;6206537;23;20044;-84
2024/03/14 09:40:53;;;;;;;11.45;7.95;;;;;;;15.15;87.57;100692.94;6205554;23;20517;-86
2024/03/14 09:43:27;;;;;;;12.55;8.35;;;;;;;15.02;85.29;100689.78;6205242;23;20012;-87
2024/03/14 09:46:02;;;;;;;12.52;8.95;;;;;;;14.80;85.67;100681.56;6205203;23;20046;-85
2024/03/14 09:48:30;;;;;;;10.20;7.45;;;;;;;14.83;84.63;100689.38;6226127;23;20106;-87
2024/03/14 09:51:06;;;;;;;9.88;7.13;;;;;;;14.76;83.93;100682.53;6207493;23;20429;-84
2024/03/14 09:53:35;;;;;;;10.95;6.95;;;;;;;14.72;85.80;100687.88;6206764;23;20043;-86
2024/03/14 09:56:07;;;;;;;9.60;6.65;;;;;;;14.75;83.02;100683.44;6178827;23;20027;-85
2024/03/14 09:58:34;;;;;;;9.57;7.10;;;;;;;14.97;79.97;100679.34;6204547;23;20020;-86
2024/03/14 10:01:03;;;;;;;6.32;5.63;;;;;;;16.59;72.76;100670.13;6228309;23;20031;-86
2024/03/14 10:03:38;;;;;;;8.98;5.80;;;;;;;17.85;63.45;100676.16;6206298;23;20084;-84
2024/03/14 10:06:23;;;;;;;6.22;5.55;;;;;;;19.35;61.09;100669.09;6208752;23;20000;-88
2024/03/14 10:08:57;;;;;;;10.73;5.70;;;;;;;20.07;54.77;100666.69;6225994;23;20442;-85
2024/03/14 10:11:28;;;;;;;8.27;5.68;;;;;;;19.99;54.79;100659.94;6204879;23;20023;-85
2024/03/14 10:17:02;;;;;;;5.35;4.85;;;;;;;20.27;52.66;100665.69;6191874;23;20020;-86
2024/03/14 10:19:35;;;;;;;6.03;4.68;;;;;;;19.97;51.71;100655.63;6233542;23;20052;-86
2024/03/14 10:22:19;;;;;;;4.93;3.30;;;;;;;20.04;51.02;100658.84;6207830;23;20008;-84
2024/03/14 10:24:56;;;;;;;5.47;4.15;;;;;;;20.06;50.51;100662.28;6214248;23;20028;-85
2024/03/14 10:27:32;;;;;;;4.20;3.78;;;;;;;19.81;51.37;100664.31;6209669;23;20107;-84
2024/03/14 10:30:01;;;;;;;5.57;5.07;;;;;;;20.27;50.40;100658.59;6232704;23;20070;-84
2024/03/14 10:32:31;;;;;;;6.65;5.70;;;;;;;20.02;51.59;100658.91;6206161;23;20028;-86
2024/03/14 10:35:09;;;;;;;6.88;5.47;;;;;;;20.31;50.43;100659.28;6205013;23;20047;-84
2024/03/14 10:37:41;;;;;;;5.35;4.88;;;;;;;20.76;50.38;100657.09;6184899;23;20040;-85
2024/03/14 10:40:21;;;;;;;7.75;4.95;;;;;;;20.53;49.66;100652.91;6233152;23;20050;-85
2024/03/14 10:42:50;;;;;;;7.32;5.30;;;;;;;20.49;50.54;100655.72;6231337;23;20022;-86
2024/03/14 10:45:33;;;;;;;5.07;4.57;;;;;;;21.33;48.98;100654.09;6206963;23;20042;-85
2024/03/14 10:48:02;;;;;;;6.32;4.90;;;;;;;20.99;48.31;100655.88;6234164;23;20031;-84
2024/03/14 10:50:30;;;;;;;4.97;3.10;;;;;;;21.19;48.12;100652.16;6208330;23;20110;-85
2024/03/14 10:53:00;;;;;;;3.95;3.55;;;;;;;21.18;47.26;100650.44;6236052;23;20035;-86
2024/03/14 10:55:38;;;;;;;5.43;4.53;;;;;;;20.44;48.42;100647.13;6233287;23;20016;-86
2024/03/14 10:58:20;;;;;;;5.38;3.47;;;;;;;20.06;49.14;100641.88;6234303;23;20124;-85
2024/03/14 11:00:55;;;;;;;9.50;4.20;;;;;;;21.04;47.70;100644.97;6237292;23;20026;-85
2024/03/14 11:03:42;;;;;;;4.13;3.70;;;;;;;21.73;46.25;100641.28;6212823;23;20099;-87
2024/03/14 11:06:27;;;;;;;7.07;4.22;;;;;;;21.67;46.37;100646.06;6217249;23;20362;-85
2024/03/14 11:09:15;;;;;;;4.55;3.70;;;;;;;21.89;45.46;100645.72;6241141;23;20004;-86
2024/03/14 11:11:57;;;;;;;3.35;2.60;;;;;;;22.26;43.80;100651.63;6216854;23;20014;-86
2024/03/14 11:14:43;;;;;;;4.38;3.08;;;;;;;21.24;45.49;100650.09;6217921;23;20043;-86
2024/03/14 11:17:18;;;;;;;8.02;3.45;;;;;;;22.48;43.63;100640.56;6236336;23;20047;-87
2024/03/14 11:20:01;;;;;;;4.80;4.30;;;;;;;22.71;43.42;100638.34;6217169;23;20080;-84
2024/03/14 11:22:42;;;;;;;6.65;5.25;;;;;;;22.81;43.29;100642.16;6193707;23;20014;-86
2024/03/14 11:25:30;;;;;;;5.07;4.45;;;;;;;23.07;42.61;100635.22;6214452;23;20047;-87
2024/03/14 11:28:14;;;;;;;4.85;4.43;;;;;;;21.93;43.91;100640.13;6217633;23;20000;-85
2024/03/14 11:31:06;;;;;;;4.72;4.30;;;;;;;21.41;45.45;100637.69;6214921;23;20349;-85
2024/03/14 11:33:40;;;;;;;4.53;4.15;;;;;;;21.47;45.51;100638.22;6212718;23;20035;-85